createdAt,value
2023-05-08T00:00:38.734Z,25.79
2023-05-08T00:03:05.540Z,25.78
2023-05-08T00:05:32.305Z,25.83
2023-05-08T00:08:01.541Z,25.74
2023-05-08T00:10:29.059Z,25.72
2023-05-08T00:12:56.135Z,25.74
2023-05-08T00:15:22.977Z,25.89
2023-05-08T00:17:49.753Z,25.84
2023-05-08T00:20:16.690Z,25.85
2023-05-08T00:22:43.500Z,25.86
2023-05-08T00:25:11.259Z,25.84
2023-05-08T00:27:38.041Z,25.82
2023-05-08T00:30:06.964Z,25.97
2023-05-08T00:32:33.829Z,25.92
2023-05-08T00:35:00.621Z,25.74
2023-05-08T00:37:27.339Z,25.79
2023-05-08T00:39:55.094Z,25.94
2023-05-08T00:42:22.268Z,25.91
2023-05-08T00:44:48.970Z,25.72
2023-05-08T00:47:15.723Z,25.87
2023-05-08T00:49:42.579Z,25.59
2023-05-08T00:52:09.307Z,25.77
2023-05-08T00:54:36.862Z,25.54
2023-05-08T00:57:06.837Z,25.67
2023-05-08T00:59:34.089Z,25.82
2023-05-08T01:02:00.998Z,25.67
2023-05-08T01:04:27.816Z,25.72
2023-05-08T01:06:54.558Z,25.77
2023-05-08T01:09:21.269Z,25.84
2023-05-08T01:11:52.539Z,25.90
2023-05-08T01:14:28.989Z,25.95
2023-05-08T01:17:02.324Z,25.76
2023-05-08T01:20:03.575Z,25.99
2023-05-08T01:22:44.435Z,25.71
2023-05-08T01:25:40.606Z,25.95
2023-05-08T01:28:13.937Z,25.81
2023-05-08T01:31:00.407Z,26.01
2023-05-08T01:33:28.321Z,25.87
2023-05-08T01:35:59.034Z,25.51
2023-05-08T01:38:47.458Z,25.86
2023-05-08T01:41:17.706Z,25.86
2023-05-08T01:44:05.514Z,25.78
2023-05-08T01:46:32.949Z,25.77
2023-05-08T01:49:26.673Z,25.80
2023-05-08T01:52:19.796Z,25.91
2023-05-08T01:54:54.077Z,25.92
2023-05-08T01:57:20.832Z,25.55
2023-05-08T01:59:47.556Z,25.89
2023-05-08T02:02:14.379Z,25.52
2023-05-08T02:04:41.474Z,25.69
2023-05-08T02:07:08.331Z,25.49
2023-05-08T02:09:35.008Z,25.86
2023-05-08T02:12:03.193Z,25.83
2023-05-08T02:14:29.978Z,25.49
2023-05-08T02:16:56.726Z,25.86
2023-05-08T02:19:23.692Z,25.90
2023-05-08T02:21:50.448Z,25.30
2023-05-08T02:24:17.796Z,25.85
2023-05-08T02:26:45.104Z,25.73
2023-05-08T02:29:12.124Z,25.76
2023-05-08T02:31:40.043Z,25.72
2023-05-08T02:34:07.549Z,25.51
2023-05-08T02:36:35.049Z,25.67
2023-05-08T02:39:02.253Z,25.78
2023-05-08T02:41:30.742Z,25.58
2023-05-08T02:43:57.641Z,25.52
2023-05-08T02:46:44.254Z,25.72
2023-05-08T02:49:31.481Z,25.87
2023-05-08T02:52:08.992Z,25.67
2023-05-08T02:54:38.364Z,25.86
2023-05-08T02:57:18.982Z,25.77
2023-05-08T03:00:08.059Z,25.76
2023-05-08T03:02:47.805Z,25.67
2023-05-08T03:05:18.596Z,25.77
2023-05-08T03:07:45.879Z,25.84
2023-05-08T03:10:16.092Z,25.47
2023-05-08T03:12:47.709Z,25.62
2023-05-08T03:15:37.715Z,25.85
2023-05-08T03:18:10.532Z,25.71
2023-05-08T03:20:43.590Z,25.57
2023-05-08T03:23:11.336Z,25.61
2023-05-08T03:25:38.751Z,25.70
2023-05-08T03:28:06.042Z,25.55
2023-05-08T03:30:36.124Z,25.48
2023-05-08T03:33:08.660Z,25.78
2023-05-08T03:35:37.184Z,25.76
2023-05-08T03:38:04.909Z,25.80
2023-05-08T03:40:32.037Z,25.61
2023-05-08T03:42:58.786Z,25.66
2023-05-08T03:45:25.618Z,25.73
2023-05-08T03:47:53.933Z,25.34
2023-05-08T03:50:21.708Z,25.56
2023-05-08T03:52:48.679Z,25.80
2023-05-08T03:55:15.888Z,25.73
2023-05-08T03:58:07.226Z,25.85
2023-05-08T04:00:42.428Z,25.76
2023-05-08T04:03:17.997Z,25.66
2023-05-08T04:05:51.865Z,25.59
2023-05-08T04:08:30.174Z,25.72
2023-05-08T04:11:06.727Z,25.79
2023-05-08T04:13:39.287Z,25.81
2023-05-08T04:16:25.022Z,25.79
2023-05-08T04:18:54.992Z,25.87
2023-05-08T04:21:23.681Z,25.61
2023-05-08T04:23:52.080Z,25.33
2023-05-08T04:26:19.069Z,25.79
2023-05-08T04:28:47.814Z,25.66
2023-05-08T04:31:15.934Z,25.80
2023-05-08T04:33:46.587Z,25.78
2023-05-08T04:36:13.830Z,25.58
2023-05-08T04:38:42.459Z,25.59
2023-05-08T04:41:10.461Z,25.63
2023-05-08T04:43:37.574Z,25.87
2023-05-08T04:46:06.266Z,25.84
2023-05-08T04:48:34.288Z,25.67
2023-05-08T04:51:01.558Z,25.67
2023-05-08T04:53:28.809Z,25.82
2023-05-08T04:55:56.031Z,25.62
2023-05-08T04:58:22.872Z,25.68
2023-05-08T05:00:49.821Z,25.61
2023-05-08T05:03:16.968Z,25.57
2023-05-08T05:05:43.843Z,25.56
2023-05-08T05:08:11.288Z,25.56
2023-05-08T05:10:41.081Z,25.68
2023-05-08T05:13:08.222Z,25.49
2023-05-08T05:15:35.526Z,25.34
2023-05-08T05:18:02.446Z,25.67
2023-05-08T05:20:30.495Z,25.58
2023-05-08T05:22:57.855Z,25.70
2023-05-08T05:25:25.393Z,25.67
2023-05-08T05:27:52.792Z,25.46
2023-05-08T05:30:22.314Z,25.48
2023-05-08T05:32:51.002Z,25.66
2023-05-08T05:35:18.472Z,25.68
2023-05-08T05:37:45.440Z,25.75
2023-05-08T05:40:13.596Z,25.75
2023-05-08T05:42:41.569Z,25.80
2023-05-08T05:45:11.163Z,25.82
2023-05-08T05:47:39.477Z,25.74
2023-05-08T05:50:08.678Z,25.83
2023-05-08T05:52:35.857Z,25.86
2023-05-08T05:55:03.491Z,25.87
2023-05-08T05:57:30.302Z,25.87
2023-05-08T05:59:57.492Z,25.79
2023-05-08T06:02:24.385Z,25.89
2023-05-08T06:04:52.498Z,25.83
2023-05-08T06:07:21.118Z,25.86
2023-05-08T06:09:50.378Z,25.87
2023-05-08T06:12:18.508Z,25.88
2023-05-08T06:14:45.741Z,25.83
2023-05-08T06:17:12.964Z,25.75
2023-05-08T06:19:39.799Z,25.83
2023-05-08T06:22:07.001Z,25.53
2023-05-08T06:24:35.590Z,25.78
2023-05-08T06:27:02.654Z,25.89
2023-05-08T06:29:29.531Z,25.94
2023-05-08T06:31:57.163Z,25.90
2023-05-08T06:34:23.842Z,25.95
2023-05-08T06:36:50.795Z,25.99
2023-05-08T06:39:17.697Z,25.88
2023-05-08T06:41:47.914Z,25.93
2023-05-08T06:44:23.879Z,25.97
2023-05-08T06:46:51.257Z,25.94
2023-05-08T06:49:19.300Z,25.86
2023-05-08T06:51:46.346Z,25.96
2023-05-08T06:54:13.412Z,25.86
2023-05-08T06:56:40.860Z,25.87
2023-05-08T06:59:09.093Z,25.96
2023-05-08T07:01:37.482Z,25.95
2023-05-08T07:04:04.821Z,25.86
2023-05-08T07:06:32.002Z,25.96
2023-05-08T07:09:00.685Z,25.82
2023-05-08T07:11:28.412Z,25.85
2023-05-08T07:13:55.686Z,26.02
2023-05-08T07:16:22.748Z,25.91
2023-05-08T07:18:49.824Z,25.96
2023-05-08T07:21:18.192Z,25.93
2023-05-08T07:23:45.722Z,25.96
2023-05-08T07:26:13.091Z,25.93
2023-05-08T07:28:40.149Z,25.89
2023-05-08T07:31:10.109Z,25.64
2023-05-08T07:33:37.726Z,25.78
2023-05-08T07:36:07.041Z,25.85
2023-05-08T07:38:34.222Z,25.59
2023-05-08T07:41:02.395Z,25.70
2023-05-08T07:43:29.488Z,25.70
2023-05-08T07:45:57.153Z,25.91
2023-05-08T07:48:24.117Z,25.64
2023-05-08T07:50:51.242Z,25.90
2023-05-08T07:53:19.370Z,25.91
2023-05-08T07:55:46.754Z,25.94
2023-05-08T07:58:13.845Z,25.76
2023-05-08T08:00:41.391Z,25.96
2023-05-08T08:03:08.857Z,25.99
2023-05-08T08:05:35.626Z,25.84
2023-05-08T08:08:02.418Z,25.92
2023-05-08T08:10:29.760Z,26.01
2023-05-08T08:12:56.592Z,26.00
2023-05-08T08:15:23.288Z,26.01
2023-05-08T08:17:50.394Z,26.06
2023-05-08T08:20:17.310Z,25.97
2023-05-08T08:22:45.222Z,25.95
2023-05-08T08:25:13.302Z,26.00
2023-05-08T08:27:40.474Z,25.81
2023-05-08T08:30:17.756Z,25.89
2023-05-08T08:32:46.431Z,25.71
2023-05-08T08:35:14.222Z,25.84
2023-05-08T08:37:42.002Z,25.84
2023-05-08T08:40:09.629Z,25.76
2023-05-08T08:42:37.150Z,25.77
2023-05-08T08:45:05.371Z,25.88
2023-05-08T08:47:37.901Z,25.93
2023-05-08T08:50:26.069Z,25.85
2023-05-08T08:53:17.480Z,26.03
2023-05-08T08:55:52.229Z,25.63
2023-05-08T08:58:44.163Z,25.92
2023-05-08T09:01:12.377Z,25.73
2023-05-08T09:03:39.578Z,25.63
2023-05-08T09:06:08.021Z,25.80
2023-05-08T09:08:40.583Z,25.94
2023-05-08T09:11:09.129Z,25.92
2023-05-08T09:13:37.149Z,25.95
2023-05-08T09:16:04.245Z,25.97
2023-05-08T09:18:32.181Z,26.00
2023-05-08T09:21:01.452Z,25.65
2023-05-08T09:23:28.641Z,26.00
2023-05-08T09:25:55.409Z,25.86
2023-05-08T09:28:24.154Z,25.79
2023-05-08T09:30:56.187Z,25.96
2023-05-08T09:33:30.754Z,26.04
2023-05-08T09:35:57.697Z,25.92
2023-05-08T09:38:34.331Z,26.04
2023-05-08T09:41:12.051Z,26.01
2023-05-08T09:43:39.468Z,26.01
2023-05-08T09:46:27.705Z,26.12
2023-05-08T09:48:58.729Z,26.03
2023-05-08T09:51:26.982Z,26.02
2023-05-08T09:54:00.067Z,25.86
2023-05-08T09:56:39.747Z,25.97
2023-05-08T09:59:23.874Z,26.05
2023-05-08T10:01:51.398Z,26.01
2023-05-08T10:04:18.579Z,26.07
2023-05-08T10:06:57.561Z,26.14
2023-05-08T10:09:24.216Z,26.12
2023-05-08T10:11:52.838Z,26.06
2023-05-08T10:14:20.360Z,25.93
2023-05-08T10:16:52.058Z,25.86
2023-05-08T10:19:20.091Z,25.87
2023-05-08T10:21:48.276Z,25.90
2023-05-08T10:24:22.459Z,26.04
2023-05-08T10:27:06.490Z,26.04
2023-05-08T10:29:39.459Z,26.01
2023-05-08T10:32:06.597Z,26.08
2023-05-08T10:34:34.149Z,26.10
2023-05-08T10:37:01.293Z,26.06
2023-05-08T10:39:28.956Z,26.08
2023-05-08T10:41:56.021Z,26.11
2023-05-08T10:44:23.381Z,26.03
2023-05-08T10:47:17.145Z,25.94
2023-05-08T10:49:45.350Z,26.11
2023-05-08T10:52:53.072Z,26.11
2023-05-08T10:55:30.360Z,26.13
2023-05-08T10:58:07.387Z,26.18
2023-05-08T11:00:54.387Z,26.11
2023-05-08T11:03:31.537Z,25.95
2023-05-08T11:05:59.994Z,25.97
2023-05-08T11:08:29.154Z,26.12
2023-05-08T11:11:02.228Z,26.23
2023-05-08T11:13:35.533Z,26.22
2023-05-08T11:16:02.891Z,26.16
2023-05-08T11:18:41.768Z,25.88
2023-05-08T11:21:16.101Z,26.21
2023-05-08T11:23:43.294Z,26.19
2023-05-08T11:26:13.934Z,26.24
2023-05-08T11:28:55.618Z,26.17
2023-05-08T11:31:22.712Z,26.31
2023-05-08T11:33:49.592Z,26.32
2023-05-08T11:36:17.798Z,26.25
2023-05-08T11:38:44.803Z,26.36
2023-05-08T11:41:25.541Z,26.42
2023-05-08T11:43:58.609Z,26.51
2023-05-08T11:46:29.900Z,26.35
2023-05-08T11:49:02.819Z,26.57
2023-05-08T11:51:33.219Z,26.69
2023-05-08T11:54:00.848Z,26.54
2023-05-08T11:56:27.592Z,26.46
2023-05-08T11:59:05.663Z,26.70
2023-05-08T12:01:33.255Z,26.64
2023-05-08T12:04:10.844Z,26.73
2023-05-08T12:06:39.814Z,26.39
2023-05-08T12:09:13.891Z,26.73
2023-05-08T12:11:45.430Z,26.88
2023-05-08T12:14:13.620Z,26.90
2023-05-08T12:16:40.713Z,26.92
2023-05-08T12:19:13.576Z,26.88
2023-05-08T12:21:47.660Z,27.01
2023-05-08T12:24:14.487Z,26.74
2023-05-08T12:26:41.738Z,26.88
2023-05-08T12:29:08.743Z,26.93
2023-05-08T12:31:35.838Z,26.61
2023-05-08T12:34:05.534Z,27.01
2023-05-08T12:36:36.345Z,26.63
2023-05-08T12:39:16.341Z,27.06
2023-05-08T12:41:49.780Z,27.11
2023-05-08T12:44:21.057Z,27.03
2023-05-08T12:46:50.227Z,27.11
2023-05-08T12:49:31.909Z,27.02
2023-05-08T12:52:09.268Z,27.11
2023-05-08T12:54:41.718Z,27.16
2023-05-08T12:57:12.556Z,27.12
2023-05-08T12:59:40.330Z,27.17
2023-05-08T13:02:19.193Z,27.06
2023-05-08T13:04:46.561Z,27.18
2023-05-08T13:07:13.880Z,27.14
2023-05-08T13:09:40.706Z,27.12
2023-05-08T13:12:08.658Z,27.12
2023-05-08T13:14:35.514Z,27.24
2023-05-08T13:17:02.769Z,27.22
2023-05-08T13:19:29.519Z,27.13
2023-05-08T13:21:57.175Z,27.20
2023-05-08T13:24:26.122Z,27.21
2023-05-08T13:26:53.344Z,26.96
2023-05-08T13:29:22.224Z,27.33
2023-05-08T13:31:48.956Z,27.16
2023-05-08T13:34:15.704Z,26.96
2023-05-08T13:36:42.414Z,27.24
2023-05-08T13:39:09.141Z,27.14
2023-05-08T13:41:37.640Z,27.20
2023-05-08T13:44:04.734Z,27.31
2023-05-08T13:46:31.630Z,26.94
2023-05-08T13:48:58.415Z,27.44
2023-05-08T13:51:26.782Z,27.48
2023-05-08T13:53:54.982Z,27.52
2023-05-08T13:56:22.415Z,27.13
2023-05-08T13:58:49.237Z,27.49
2023-05-08T14:01:25.519Z,27.30
2023-05-08T14:03:53.353Z,27.43
2023-05-08T14:06:21.376Z,27.47
2023-05-08T14:08:51.477Z,27.37
2023-05-08T14:11:19.682Z,27.40
2023-05-08T14:13:46.882Z,27.39
2023-05-08T14:16:16.251Z,27.20
2023-05-08T14:18:43.240Z,27.19
2023-05-08T14:21:10.470Z,27.30
2023-05-08T14:23:39.162Z,27.31
2023-05-08T14:26:06.896Z,27.21
2023-05-08T14:28:33.807Z,27.21
2023-05-08T14:31:02.576Z,27.18
2023-05-08T14:33:29.760Z,27.25
2023-05-08T14:35:57.090Z,27.29
2023-05-08T14:38:24.095Z,27.15
2023-05-08T14:40:51.907Z,27.25
2023-05-08T14:43:19.052Z,27.29
2023-05-08T14:45:45.926Z,27.23
2023-05-08T14:48:13.426Z,27.24
2023-05-08T14:50:42.524Z,27.23
2023-05-08T14:53:09.962Z,27.15
2023-05-08T14:55:37.433Z,27.25
2023-05-08T14:58:04.640Z,27.19
2023-05-08T15:00:31.398Z,27.21
2023-05-08T15:02:58.623Z,27.11
2023-05-08T15:05:26.374Z,27.23
2023-05-08T15:07:54.163Z,27.25
2023-05-08T15:10:20.914Z,26.89
2023-05-08T15:12:47.620Z,27.18
2023-05-08T15:15:15.694Z,27.17
2023-05-08T15:17:43.417Z,27.24
2023-05-08T15:20:10.285Z,27.04
2023-05-08T15:22:37.280Z,27.19
2023-05-08T15:25:06.181Z,27.10
2023-05-08T15:27:33.112Z,27.03
2023-05-08T15:30:02.221Z,27.20
2023-05-08T15:32:29.905Z,27.09
2023-05-08T15:34:56.664Z,27.15
2023-05-08T15:37:23.750Z,27.11
2023-05-08T15:39:51.172Z,27.15
2023-05-08T15:42:18.531Z,26.63
2023-05-08T15:47:16.295Z,26.47
2023-05-08T15:49:44.440Z,26.47
2023-05-08T15:52:11.417Z,26.26
2023-05-08T15:54:38.153Z,26.48
2023-05-08T15:57:04.833Z,26.53
2023-05-08T15:59:31.586Z,26.61
2023-05-08T16:01:58.804Z,26.44
2023-05-08T16:04:26.028Z,26.69
2023-05-08T16:06:53.317Z,26.69
2023-05-08T16:09:20.879Z,26.71
2023-05-08T16:11:48.332Z,26.64
2023-05-08T16:14:17.369Z,26.75
2023-05-08T16:16:44.437Z,26.70
2023-05-08T16:19:11.255Z,26.33
2023-05-08T16:21:38.065Z,26.52
2023-05-08T16:24:06.315Z,26.20
2023-05-08T16:26:34.009Z,25.92
2023-05-08T16:29:00.866Z,25.96
2023-05-08T16:31:27.730Z,26.12
2023-05-08T16:33:54.990Z,26.19
2023-05-08T16:36:22.408Z,26.21
2023-05-08T16:38:50.054Z,26.29
2023-05-08T16:41:18.215Z,26.26
2023-05-08T16:43:44.928Z,26.23
2023-05-08T16:46:12.660Z,26.45
2023-05-08T16:48:40.407Z,26.28
2023-05-08T16:51:08.035Z,26.39
2023-05-08T16:53:35.035Z,26.47
2023-05-08T16:56:02.602Z,26.41
2023-05-08T16:58:31.418Z,26.24
2023-05-08T17:00:58.704Z,26.53
2023-05-08T17:03:28.129Z,26.54
2023-05-08T17:05:54.917Z,26.44
2023-05-08T17:08:22.357Z,26.51
2023-05-08T17:10:50.532Z,26.22
2023-05-08T17:13:17.936Z,26.63
2023-05-08T17:15:45.571Z,26.65
2023-05-08T17:18:12.414Z,26.51
2023-05-08T17:20:42.714Z,26.61
2023-05-08T17:23:10.571Z,26.29
2023-05-08T17:25:37.321Z,26.69
2023-05-08T17:28:05.469Z,26.51
2023-05-08T17:30:34.023Z,26.65
2023-05-08T17:33:01.349Z,26.69
2023-05-08T17:35:28.151Z,26.52
2023-05-08T17:37:55.871Z,26.39
2023-05-08T17:40:24.051Z,26.59
2023-05-08T17:42:51.374Z,26.76
2023-05-08T17:45:18.651Z,26.65
2023-05-08T17:47:47.153Z,26.54
2023-05-08T17:50:15.084Z,26.61
2023-05-08T17:52:42.866Z,26.72
2023-05-08T17:55:11.645Z,26.71
2023-05-08T17:57:40.024Z,26.68
2023-05-08T18:00:07.882Z,26.73
2023-05-08T18:02:35.799Z,26.38
2023-05-08T18:05:03.362Z,26.72
2023-05-08T18:07:31.206Z,26.68
2023-05-08T18:09:58.255Z,26.74
2023-05-08T18:12:25.873Z,26.78
2023-05-08T18:14:57.430Z,26.56
2023-05-08T18:17:34.967Z,26.72
2023-05-08T18:20:08.086Z,26.68
2023-05-08T18:22:35.316Z,26.53
2023-05-08T18:25:02.317Z,26.48
2023-05-08T18:27:30.370Z,26.44
2023-05-08T18:29:57.138Z,26.53
2023-05-08T18:32:24.150Z,26.43
2023-05-08T18:34:50.958Z,26.64
2023-05-08T18:37:19.135Z,26.67
2023-05-08T18:39:46.172Z,26.68
2023-05-08T18:42:13.462Z,26.63
2023-05-08T18:44:40.305Z,26.66
2023-05-08T18:47:07.440Z,26.65
2023-05-08T18:49:34.758Z,26.67
2023-05-08T18:52:02.259Z,26.43
2023-05-08T18:54:29.607Z,26.55
2023-05-08T18:56:56.466Z,26.54
2023-05-08T18:59:24.635Z,26.64
2023-05-08T19:01:52.141Z,26.59
2023-05-08T19:04:19.294Z,26.55
2023-05-08T19:06:47.188Z,26.63
2023-05-08T19:09:29.851Z,26.66
2023-05-08T19:12:02.987Z,26.51
2023-05-08T19:14:43.139Z,26.54
2023-05-08T19:17:29.661Z,26.60
2023-05-08T19:19:57.679Z,26.37
2023-05-08T19:22:25.074Z,26.56
2023-05-08T19:24:51.792Z,26.63
2023-05-08T19:27:18.563Z,26.61
2023-05-08T19:29:52.366Z,26.72
2023-05-08T19:32:20.747Z,26.59
2023-05-08T19:34:47.569Z,26.53
2023-05-08T19:37:14.495Z,26.67
2023-05-08T19:39:41.954Z,26.65
2023-05-08T19:42:35.776Z,26.71
2023-05-08T19:45:17.035Z,26.65
2023-05-08T19:47:52.568Z,26.70
2023-05-08T19:50:20.863Z,26.74
2023-05-08T19:52:49.323Z,26.55
2023-05-08T19:55:25.688Z,26.55
2023-05-08T19:57:58.440Z,26.29
2023-05-08T20:00:42.840Z,26.72
2023-05-08T20:03:29.810Z,26.72
2023-05-08T20:06:21.915Z,26.69
2023-05-08T20:08:54.153Z,26.72
2023-05-08T20:11:32.983Z,26.73
2023-05-08T20:14:13.142Z,26.65
2023-05-08T20:16:53.675Z,26.51
2023-05-08T20:19:27.428Z,26.44
2023-05-08T20:22:01.628Z,26.30
2023-05-08T20:24:43.018Z,26.48
2023-05-08T20:27:11.095Z,26.33
2023-05-08T20:29:37.857Z,26.35
2023-05-08T20:32:04.822Z,26.23
2023-05-08T20:34:31.934Z,26.13
2023-05-08T20:37:01.094Z,26.13
2023-05-08T20:39:31.420Z,26.17
2023-05-08T20:41:58.411Z,26.21
2023-05-08T20:44:25.485Z,26.21
2023-05-08T20:46:52.659Z,26.31
2023-05-08T20:49:19.458Z,26.35
2023-05-08T20:51:46.534Z,26.13
2023-05-08T20:54:13.679Z,26.40
2023-05-08T20:56:42.810Z,26.19
2023-05-08T20:59:10.123Z,26.30
2023-05-08T21:01:37.006Z,26.33
2023-05-08T21:04:04.382Z,26.31
2023-05-08T21:06:32.905Z,26.22
2023-05-08T21:09:00.594Z,26.25
2023-05-08T21:11:30.289Z,26.40
2023-05-08T21:13:58.907Z,26.38
2023-05-08T21:16:27.339Z,26.24
2023-05-08T21:18:58.037Z,26.42
2023-05-08T21:21:25.729Z,26.25
2023-05-08T21:23:52.631Z,26.28
2023-05-08T21:26:22.032Z,26.13
2023-05-08T21:28:49.682Z,26.28
2023-05-08T21:31:18.122Z,26.38
2023-05-08T21:33:45.433Z,26.18
2023-05-08T21:36:12.190Z,26.27
2023-05-08T21:38:39.786Z,26.35
2023-05-08T21:41:09.943Z,26.25
2023-05-08T21:43:37.008Z,26.15
2023-05-08T21:46:05.385Z,26.17
2023-05-08T21:48:32.305Z,26.34
2023-05-08T21:51:01.624Z,26.34
2023-05-08T21:53:28.704Z,26.31
2023-05-08T21:55:56.152Z,26.32
2023-05-08T21:58:23.143Z,26.33
2023-05-08T22:00:50.286Z,26.14
2023-05-08T22:03:17.946Z,26.20
2023-05-08T22:05:45.146Z,26.27
2023-05-08T22:08:11.864Z,26.22
2023-05-08T22:10:39.125Z,26.09
2023-05-08T22:13:07.735Z,26.19
2023-05-08T22:15:34.729Z,26.18
2023-05-08T22:18:04.918Z,26.29
2023-05-08T22:20:32.325Z,26.29
2023-05-08T22:22:59.501Z,26.16
2023-05-08T22:25:27.122Z,26.32
2023-05-08T22:27:53.947Z,26.28
2023-05-08T22:30:21.986Z,26.30
2023-05-08T22:32:59.513Z,26.25
2023-05-08T22:35:27.696Z,26.26
2023-05-08T22:37:54.639Z,25.88
2023-05-08T22:40:22.445Z,26.12
2023-05-08T22:42:51.291Z,26.11
2023-05-08T22:45:18.363Z,26.13
2023-05-08T22:47:45.586Z,26.22
2023-05-08T22:50:12.381Z,26.24
2023-05-08T22:52:39.504Z,26.20
2023-05-08T22:55:07.179Z,26.11
2023-05-08T22:57:34.089Z,26.13
2023-05-08T23:00:01.539Z,26.25
2023-05-08T23:02:33.002Z,26.27
2023-05-08T23:05:00.432Z,26.11
2023-05-08T23:07:27.205Z,26.25
2023-05-08T23:09:54.142Z,26.09
2023-05-08T23:12:21.220Z,26.07
2023-05-08T23:14:48.216Z,26.21
2023-05-08T23:17:15.576Z,26.16
2023-05-08T23:19:42.656Z,26.16
2023-05-08T23:22:10.254Z,26.10
2023-05-08T23:24:36.897Z,26.07
2023-05-08T23:27:03.898Z,26.19
2023-05-08T23:29:30.901Z,26.23
2023-05-08T23:31:57.959Z,26.21
2023-05-08T23:34:25.274Z,26.24
2023-05-08T23:36:52.818Z,26.18
2023-05-08T23:39:19.573Z,26.27
2023-05-08T23:41:46.608Z,26.14
2023-05-08T23:44:13.330Z,26.20
2023-05-08T23:46:39.942Z,26.02
2023-05-08T23:49:08.147Z,26.07
2023-05-08T23:51:35.009Z,26.19
2023-05-08T23:54:02.087Z,26.18
2023-05-08T23:56:29.954Z,26.16
2023-05-08T23:58:58.891Z,25.89
